Terminal Aerodrome Forecast
Issued by NWS

Home | Current Version | Previous Version | Text Only | Print | Product List | Glossary On
Versions: 1 2 3 4 5 6 7 8 9 10 11 12 13 14 15
793
FTUS46 KLOX 202333
TAFLGB
TAF
KLGB 202333Z 2100/2124 19008KT P6SM SKC
     FM210030 29008KT P6SM SKC
     FM210500 VRB03KT P6SM SKC
     FM210800 VRB03KT P6SM OVC012
     FM211700 17005KT P6SM SKC
     FM212100 19008KT P6SM SKC=

USA.gov is the U.S. government's official web portal to all federal, state and local government web resources and services.